createdAt,value
2023-04-02T00:00:19.599Z,0.57
2023-04-02T00:02:51.365Z,1.90
2023-04-02T00:05:56.080Z,0.40
2023-04-02T00:08:32.409Z,0.80
2023-04-02T00:11:03.711Z,0.40
2023-04-02T00:13:39.366Z,1.13
2023-04-02T00:16:11.604Z,0.30
2023-04-02T00:18:45.910Z,1.52
2023-04-02T00:21:19.670Z,1.80
2023-04-02T00:23:50.680Z,0.40
2023-04-02T00:26:24.938Z,0.68
2023-04-02T00:28:58.246Z,1.88
2023-04-02T00:31:29.118Z,0.65
2023-04-02T00:33:59.467Z,2.58
2023-04-02T00:36:37.028Z,2.45
2023-04-02T00:39:11.373Z,1.20
2023-04-02T00:41:46.886Z,1.55
2023-04-02T00:44:22.380Z,0.60
2023-04-02T00:46:53.483Z,0.85
2023-04-02T00:49:28.621Z,1.40
2023-04-02T00:52:01.376Z,0.88
2023-04-02T00:54:34.700Z,1.15
2023-04-02T00:57:05.130Z,2.88
2023-04-02T00:59:39.565Z,0.95
2023-04-02T01:04:40.402Z,1.73
2023-04-02T01:07:15.072Z,1.52
2023-04-02T01:09:53.294Z,1.90
2023-04-02T01:12:32.145Z,1.02
2023-04-02T01:15:12.057Z,0.93
2023-04-02T01:17:54.779Z,2.83
2023-04-02T01:20:33.211Z,0.82
2023-04-02T01:23:06.652Z,1.60
2023-04-02T01:25:43.347Z,0.93
2023-04-02T01:28:19.737Z,3.90
2023-04-02T01:30:56.055Z,1.38
2023-04-02T01:33:27.042Z,4.20
2023-04-02T01:36:01.910Z,2.65
2023-04-02T01:38:40.783Z,1.20
2023-04-02T01:41:13.126Z,1.42
2023-04-02T01:43:47.711Z,2.83
2023-04-02T01:46:32.004Z,0.82
2023-04-02T01:49:04.292Z,1.38
2023-04-02T01:51:36.395Z,3.25
2023-04-02T01:54:09.327Z,4.50
2023-04-02T01:56:39.816Z,1.42
2023-04-02T01:59:11.235Z,2.30
2023-04-02T02:01:49.314Z,9.77
2023-04-02T02:04:20.450Z,1.20
2023-04-02T02:06:51.573Z,2.03
2023-04-02T02:09:26.323Z,2.15
2023-04-02T02:11:56.667Z,3.28
2023-04-02T02:14:28.179Z,1.88
2023-04-02T02:17:02.867Z,2.03
2023-04-02T02:19:34.738Z,3.08
2023-04-02T02:22:10.232Z,1.30
2023-04-02T02:24:41.319Z,3.25
2023-04-02T02:27:22.515Z,2.47
2023-04-02T02:29:59.012Z,2.92
2023-04-02T02:32:33.523Z,1.80
2023-04-02T02:35:06.027Z,1.13
2023-04-02T02:37:40.847Z,3.45
2023-04-02T02:40:14.964Z,2.05
2023-04-02T02:42:48.036Z,4.35
2023-04-02T02:45:19.609Z,4.65
2023-04-02T02:47:53.345Z,4.40
2023-04-02T02:50:24.919Z,1.45
2023-04-02T02:52:57.192Z,3.80
2023-04-02T02:55:32.313Z,3.42
2023-04-02T02:58:10.684Z,3.40
2023-04-02T03:00:57.193Z,2.00
2023-04-02T03:03:32.774Z,3.03
2023-04-02T03:06:07.346Z,2.05
2023-04-02T03:08:40.476Z,2.42
2023-04-02T03:11:15.721Z,2.63
2023-04-02T03:13:48.724Z,1.13
2023-04-02T03:16:23.702Z,5.85
2023-04-02T03:18:59.443Z,2.58
2023-04-02T03:21:32.326Z,5.30
2023-04-02T03:24:04.298Z,2.17
2023-04-02T03:26:36.361Z,3.95
2023-04-02T03:29:10.653Z,1.65
2023-04-02T03:31:42.740Z,2.38
2023-04-02T03:34:18.149Z,7.00
2023-04-02T03:36:53.766Z,2.33
2023-04-02T03:39:26.530Z,2.15
2023-04-02T03:41:59.338Z,4.43
2023-04-02T03:44:31.632Z,3.05
2023-04-02T03:47:05.016Z,2.45
2023-04-02T03:49:42.101Z,3.72
2023-04-02T03:52:14.515Z,2.20
2023-04-02T03:54:53.699Z,5.28
2023-04-02T03:57:29.128Z,4.00
2023-04-02T04:05:08.856Z,3.22
2023-04-02T04:10:10.357Z,3.00
2023-04-02T04:12:43.981Z,3.30
2023-04-02T04:15:24.094Z,2.67
2023-04-02T04:18:02.485Z,4.60
2023-04-02T04:20:46.298Z,3.92
2023-04-02T04:23:25.994Z,5.60
2023-04-02T04:26:02.097Z,3.22
2023-04-02T04:28:38.493Z,4.40
2023-04-02T04:31:18.043Z,3.00
2023-04-02T04:33:54.949Z,4.80
2023-04-02T04:36:33.333Z,4.72
2023-04-02T04:39:10.419Z,3.40
2023-04-02T04:41:42.625Z,3.63
2023-04-02T04:44:22.452Z,4.28
2023-04-02T04:46:58.693Z,5.53
2023-04-02T04:49:35.328Z,5.13
2023-04-02T04:52:13.710Z,2.85
2023-04-02T04:54:44.887Z,3.75
2023-04-02T04:57:32.082Z,3.60
2023-04-02T05:00:07.010Z,4.47
2023-04-02T05:02:46.539Z,4.05
2023-04-02T05:05:21.964Z,5.25
2023-04-02T05:08:02.060Z,3.47
2023-04-02T05:10:36.691Z,5.55
2023-04-02T05:13:08.849Z,4.45
2023-04-02T05:15:42.294Z,7.53
2023-04-02T05:18:17.701Z,7.95
2023-04-02T05:20:51.630Z,4.78
2023-04-02T05:23:27.674Z,4.93
2023-04-02T05:26:04.355Z,4.13
2023-04-02T05:28:37.848Z,4.30
2023-04-02T05:31:13.534Z,3.80
2023-04-02T05:33:47.935Z,6.60
2023-04-02T05:36:24.060Z,5.40
2023-04-02T05:39:01.572Z,2.85
2023-04-02T05:41:46.067Z,6.75
2023-04-02T05:44:24.590Z,4.88
2023-04-02T05:47:00.041Z,5.40
2023-04-02T05:49:34.293Z,4.00
2023-04-02T05:52:06.457Z,3.90
2023-04-02T05:54:45.084Z,3.78
2023-04-02T05:57:32.493Z,4.80
2023-04-02T06:00:18.931Z,3.78
2023-04-02T06:02:55.089Z,4.15
2023-04-02T06:05:28.156Z,4.45
2023-04-02T06:08:06.441Z,5.72
2023-04-02T06:10:47.591Z,4.22
2023-04-02T06:13:19.883Z,5.97
2023-04-02T06:15:50.584Z,4.05
2023-04-02T06:18:28.158Z,3.00
2023-04-02T06:20:59.912Z,3.67
2023-04-02T06:23:33.848Z,4.28
2023-04-02T06:26:12.382Z,4.18
2023-04-02T06:28:47.160Z,5.03
2023-04-02T06:31:23.703Z,4.82
2023-04-02T06:33:56.436Z,3.50
2023-04-02T06:36:30.577Z,5.03
2023-04-02T06:39:10.515Z,4.00
2023-04-02T06:41:44.255Z,4.32
2023-04-02T06:44:30.567Z,5.90
2023-04-02T06:47:27.432Z,6.55
2023-04-02T06:50:00.468Z,9.38
2023-04-02T06:52:34.662Z,4.85
2023-04-02T06:55:08.837Z,4.78
2023-04-02T06:57:43.035Z,5.07
2023-04-02T07:00:28.699Z,4.65
2023-04-02T07:02:59.519Z,7.20
2023-04-02T07:05:29.845Z,6.25
2023-04-02T07:08:00.551Z,6.95
2023-04-02T07:10:30.864Z,6.22
2023-04-02T07:13:05.864Z,6.07
2023-04-02T07:15:36.570Z,8.32
2023-04-02T07:18:07.615Z,12.57
2023-04-02T07:20:38.847Z,5.90
2023-04-02T07:23:15.861Z,6.80
2023-04-02T07:28:21.355Z,6.82
2023-04-02T07:30:52.903Z,8.13
2023-04-02T07:33:25.588Z,7.00
2023-04-02T07:35:57.510Z,7.18
2023-04-02T07:38:27.953Z,7.40
2023-04-02T07:40:58.375Z,1.27
2023-04-02T07:43:31.251Z,0.82
2023-04-02T07:46:01.960Z,0.60
2023-04-02T07:48:32.300Z,0.20
2023-04-02T07:51:03.500Z,0.95
2023-04-02T07:53:34.759Z,0.28
2023-04-02T07:56:06.034Z,2.38
2023-04-02T07:58:39.217Z,0.75
2023-04-02T08:01:19.472Z,3.53
2023-04-02T08:03:51.275Z,0.80
2023-04-02T08:06:23.297Z,0.98
2023-04-02T08:08:53.688Z,1.35
2023-04-02T08:11:23.930Z,0.68
2023-04-02T08:13:56.842Z,1.42
2023-04-02T08:16:27.973Z,0.98
2023-04-02T08:18:58.283Z,0.70
2023-04-02T08:21:28.550Z,0.50
2023-04-02T08:23:58.907Z,0.55
2023-04-02T08:26:29.267Z,0.17
2023-04-02T08:29:02.113Z,1.95
2023-04-02T08:31:32.925Z,16.42
2023-04-02T08:34:03.467Z,7.95
2023-04-02T08:36:37.344Z,1.95
2023-04-02T08:39:11.092Z,1.00
2023-04-02T08:41:42.743Z,3.10
2023-04-02T08:44:21.812Z,2.58
2023-04-02T08:46:54.907Z,0.52
2023-04-02T08:49:31.491Z,1.35
2023-04-02T08:52:02.121Z,2.83
2023-04-02T08:54:34.713Z,1.80
2023-04-02T08:57:07.835Z,1.00
2023-04-02T08:59:42.517Z,0.77
2023-04-02T09:02:24.372Z,0.77
2023-04-02T09:04:55.032Z,0.70
2023-04-02T09:07:25.971Z,1.67
2023-04-02T09:09:58.154Z,1.08
2023-04-02T09:12:29.908Z,0.47
2023-04-02T09:15:14.397Z,4.60
2023-04-02T09:17:53.716Z,0.30
2023-04-02T09:20:26.754Z,1.52
2023-04-02T09:22:57.774Z,0.43
2023-04-02T09:25:29.910Z,1.92
2023-04-02T09:28:03.302Z,0.50
2023-04-02T09:30:59.422Z,1.60
2023-04-02T09:33:44.322Z,1.05
2023-04-02T09:36:22.358Z,0.20
2023-04-02T09:39:06.725Z,0.20
2023-04-02T09:41:37.880Z,0.20
2023-04-02T09:44:23.451Z,0.47
2023-04-02T09:46:59.749Z,3.40
2023-04-02T09:49:32.586Z,1.00
2023-04-02T09:52:19.980Z,0.47
2023-04-02T09:55:07.524Z,1.60
2023-04-02T09:57:38.862Z,0.77
2023-04-02T10:00:25.984Z,0.73
2023-04-02T10:03:09.611Z,0.40
2023-04-02T10:05:41.419Z,0.55
2023-04-02T10:08:21.629Z,0.20
2023-04-02T10:10:54.123Z,0.63
2023-04-02T10:13:29.798Z,0.85
2023-04-02T10:16:04.667Z,0.30
2023-04-02T10:18:45.064Z,0.90
2023-04-02T10:21:16.646Z,0.65
2023-04-02T10:23:47.110Z,0.47
2023-04-02T10:26:24.514Z,0.50
2023-04-02T10:29:04.479Z,0.55
2023-04-02T10:31:41.392Z,0.80
2023-04-02T10:34:19.112Z,0.40
2023-04-02T10:36:55.377Z,0.20
2023-04-02T10:39:31.465Z,0.63
2023-04-02T10:42:04.238Z,0.40
2023-04-02T10:44:41.029Z,2.85
2023-04-02T10:47:22.588Z,0.50
2023-04-02T10:50:01.085Z,0.63
2023-04-02T10:52:37.389Z,1.27
2023-04-02T10:55:09.788Z,0.75
2023-04-02T10:57:41.333Z,0.50
2023-04-02T11:00:21.204Z,0.80
2023-04-02T11:02:57.564Z,0.40
2023-04-02T11:05:37.355Z,1.02
2023-04-02T11:08:13.236Z,7.57
2023-04-02T11:10:49.379Z,2.72
2023-04-02T11:13:23.684Z,1.23
2023-04-02T11:15:54.232Z,0.80
2023-04-02T11:18:28.710Z,0.57
2023-04-02T11:21:03.043Z,0.32
2023-04-02T11:23:35.246Z,0.88
2023-04-02T11:26:34.934Z,0.43
2023-04-02T11:29:08.627Z,1.13
2023-04-02T11:31:39.100Z,0.70
2023-04-02T11:34:09.507Z,1.13
2023-04-02T11:37:04.944Z,0.90
2023-04-02T11:40:06.702Z,1.58
2023-04-02T11:42:37.557Z,0.60
2023-04-02T11:45:23.180Z,0.85
2023-04-02T11:48:08.533Z,0.77
2023-04-02T11:50:39.879Z,0.77
2023-04-02T11:53:23.195Z,1.10
2023-04-02T11:56:09.234Z,1.20
2023-04-02T11:58:49.320Z,2.20
2023-04-02T12:01:36.546Z,0.73
2023-04-02T12:04:42.186Z,0.95
2023-04-02T12:07:28.142Z,1.10
2023-04-02T12:10:02.184Z,1.98
2023-04-02T12:12:35.629Z,3.03
2023-04-02T12:15:26.132Z,1.40
2023-04-02T12:17:56.632Z,3.47
2023-04-02T12:20:30.274Z,1.67
2023-04-02T12:23:01.146Z,1.30
2023-04-02T12:25:40.284Z,2.70
2023-04-02T12:28:18.136Z,1.73
2023-04-02T12:30:48.833Z,1.50
2023-04-02T12:33:20.152Z,1.77
2023-04-02T12:35:51.341Z,1.30
2023-04-02T12:38:26.302Z,1.33
2023-04-02T12:41:00.339Z,1.23
2023-04-02T12:43:32.089Z,2.83
2023-04-02T12:46:04.833Z,2.28
2023-04-02T12:48:35.700Z,1.17
2023-04-02T12:51:06.376Z,2.40
2023-04-02T12:53:38.171Z,1.00
2023-04-02T12:56:21.507Z,2.17
2023-04-02T12:58:56.396Z,2.15
2023-04-02T13:01:28.402Z,1.40
2023-04-02T13:04:06.727Z,1.55
2023-04-02T13:06:37.392Z,1.35
2023-04-02T13:09:08.605Z,1.75
2023-04-02T13:11:42.507Z,4.90
2023-04-02T13:14:21.344Z,2.13
2023-04-02T13:16:51.682Z,2.30
2023-04-02T13:19:28.397Z,1.98
2023-04-02T13:21:59.810Z,2.92
2023-04-02T13:24:31.196Z,3.05
2023-04-02T13:27:05.104Z,6.47
2023-04-02T13:29:36.212Z,5.78
2023-04-02T13:32:08.907Z,7.63
2023-04-02T13:34:39.299Z,11.10
2023-04-02T13:37:09.634Z,11.60
2023-04-02T13:39:39.928Z,7.22
2023-04-02T13:42:14.730Z,4.30
2023-04-02T13:44:46.621Z,4.68
2023-04-02T13:47:17.848Z,9.60
2023-04-02T13:49:48.360Z,5.82
2023-04-02T13:52:19.308Z,6.90
2023-04-02T13:54:51.118Z,7.53
2023-04-02T13:57:24.347Z,9.82
2023-04-02T13:59:54.703Z,4.25
2023-04-02T14:02:27.578Z,5.40
2023-04-02T14:05:11.501Z,3.97
2023-04-02T14:07:50.321Z,3.70
2023-04-02T14:10:28.594Z,11.68
2023-04-02T14:13:15.023Z,8.45
2023-04-02T14:15:52.647Z,9.15
2023-04-02T14:18:36.876Z,2.22
2023-04-02T14:21:16.234Z,3.45
2023-04-02T14:23:53.039Z,1.75
2023-04-02T14:26:30.508Z,1.73
2023-04-02T14:29:09.646Z,1.67
2023-04-02T14:31:44.732Z,1.10
2023-04-02T14:34:24.666Z,1.02
2023-04-02T14:37:02.141Z,1.13
2023-04-02T14:39:41.577Z,1.30
2023-04-02T14:42:16.721Z,1.10
2023-04-02T14:44:54.403Z,1.85
2023-04-02T14:47:27.861Z,1.30
2023-04-02T14:50:04.129Z,1.97
2023-04-02T14:52:37.803Z,2.53
2023-04-02T14:55:09.488Z,2.22
2023-04-02T14:57:42.054Z,0.85
2023-04-02T15:00:24.371Z,1.33
2023-04-02T15:02:58.022Z,1.08
2023-04-02T15:05:31.972Z,0.80
2023-04-02T15:08:07.787Z,1.40
2023-04-02T15:10:40.090Z,1.40
2023-04-02T15:13:17.888Z,1.23
2023-04-02T15:15:52.708Z,2.58
2023-04-02T15:18:23.062Z,1.45
2023-04-02T15:20:58.424Z,2.20
2023-04-02T15:23:34.422Z,1.98
2023-04-02T15:26:08.142Z,2.60
2023-04-02T15:28:42.084Z,1.40
2023-04-02T15:31:17.069Z,2.38
2023-04-02T15:33:50.023Z,1.00
2023-04-02T15:36:49.919Z,1.67
2023-04-02T15:39:44.589Z,1.60
2023-04-02T15:42:21.450Z,2.15
2023-04-02T15:45:20.653Z,2.63
2023-04-02T15:48:23.308Z,1.65
2023-04-02T15:51:10.048Z,1.60
2023-04-02T15:53:51.989Z,2.15
2023-04-02T15:56:39.948Z,1.85
2023-04-02T15:59:39.306Z,2.03
2023-04-02T16:02:41.788Z,2.67
2023-04-02T16:05:24.419Z,4.03
2023-04-02T16:08:29.835Z,2.63
2023-04-02T16:13:33.367Z,3.03
2023-04-02T16:16:08.169Z,3.00
2023-04-02T16:18:47.645Z,7.72
2023-04-02T16:21:24.939Z,8.82
2023-04-02T16:23:55.230Z,4.75
2023-04-02T16:26:43.798Z,8.23
2023-04-02T16:29:51.156Z,5.28
2023-04-02T16:32:41.233Z,3.55
2023-04-02T16:35:41.871Z,3.83
2023-04-02T16:38:28.031Z,7.28
2023-04-02T16:41:08.670Z,2.13
2023-04-02T16:43:50.789Z,2.63
2023-04-02T16:46:38.971Z,3.60
2023-04-02T16:49:21.560Z,1.67
2023-04-02T16:51:59.680Z,1.60
2023-04-02T16:54:38.950Z,3.60
2023-04-02T16:57:21.466Z,10.50
2023-04-02T16:59:58.909Z,3.53
2023-04-02T17:02:42.903Z,2.00
2023-04-02T17:05:24.813Z,2.28
2023-04-02T17:08:03.603Z,2.97
2023-04-02T17:10:43.402Z,2.63
2023-04-02T17:13:20.798Z,2.28
2023-04-02T17:15:56.708Z,2.08
2023-04-02T17:18:27.453Z,4.95
2023-04-02T17:21:01.680Z,2.75
2023-04-02T17:23:36.632Z,5.03
2023-04-02T17:26:16.402Z,6.85
2023-04-02T17:28:48.681Z,4.35
2023-04-02T17:31:22.211Z,3.10
2023-04-02T17:33:52.730Z,4.43
2023-04-02T17:36:35.013Z,3.95
2023-04-02T17:39:12.575Z,3.45
2023-04-02T17:41:50.000Z,3.78
2023-04-02T17:44:44.225Z,4.57
2023-04-02T17:47:22.442Z,3.33
2023-04-02T17:50:05.261Z,5.93
2023-04-02T17:52:41.911Z,3.88
2023-04-02T17:55:22.243Z,3.45
2023-04-02T17:58:05.322Z,2.90
2023-04-02T18:00:46.180Z,6.05
2023-04-02T18:03:44.391Z,4.07
2023-04-02T18:06:21.082Z,6.32
2023-04-02T18:09:04.490Z,4.55
2023-04-02T18:11:45.581Z,5.50
2023-04-02T18:14:33.483Z,7.63
2023-04-02T18:17:09.903Z,7.75
2023-04-02T18:19:50.382Z,8.27
2023-04-02T18:22:26.320Z,7.88
2023-04-02T18:25:24.887Z,6.20
2023-04-02T18:28:07.957Z,5.78
2023-04-02T18:30:50.014Z,5.93
2023-04-02T18:33:44.358Z,5.70
2023-04-02T18:36:22.504Z,4.10
2023-04-02T18:38:57.761Z,4.28
2023-04-02T18:41:45.971Z,3.80
2023-04-02T18:44:32.288Z,5.88
2023-04-02T18:47:11.376Z,4.70
2023-04-02T18:49:43.702Z,4.25
2023-04-02T18:52:15.884Z,3.20
2023-04-02T18:54:49.178Z,4.68
2023-04-02T18:57:22.871Z,3.92
2023-04-02T19:00:00.460Z,2.03
2023-04-02T19:02:48.093Z,3.10
2023-04-02T19:05:25.911Z,2.47
2023-04-02T19:08:04.691Z,2.80
2023-04-02T19:10:37.495Z,3.17
2023-04-02T19:13:15.022Z,4.67
2023-04-02T19:15:58.483Z,4.30
2023-04-02T19:18:41.566Z,3.67
2023-04-02T19:21:19.663Z,4.47
2023-04-02T19:24:09.508Z,4.03
2023-04-02T19:26:46.859Z,5.47
2023-04-02T19:29:27.606Z,5.40
2023-04-02T19:32:08.391Z,5.68
2023-04-02T19:34:45.994Z,11.98
2023-04-02T19:37:20.247Z,8.00
2023-04-02T19:40:16.661Z,10.13
2023-04-02T19:42:49.199Z,4.82
2023-04-02T19:45:34.900Z,6.20
2023-04-02T19:48:14.158Z,4.90
2023-04-02T19:50:47.715Z,7.95
2023-04-02T19:53:18.083Z,4.88
2023-04-02T19:55:49.388Z,9.55
2023-04-02T19:58:28.918Z,8.60
2023-04-02T20:00:59.494Z,3.37
2023-04-02T20:03:30.397Z,3.90
2023-04-02T20:06:03.622Z,9.00
2023-04-02T20:08:33.930Z,14.90
2023-04-02T20:11:04.227Z,7.30
2023-04-02T20:13:34.929Z,10.27
2023-04-02T20:16:06.774Z,8.32
2023-04-02T20:18:37.614Z,8.85
2023-04-02T20:21:11.019Z,9.15
2023-04-02T20:23:41.330Z,4.53
2023-04-02T20:26:11.842Z,5.38
2023-04-02T20:28:42.496Z,5.18
2023-04-02T20:31:14.292Z,2.42
2023-04-02T20:33:45.101Z,4.93
2023-04-02T20:36:19.342Z,8.30
2023-04-02T20:38:51.131Z,6.55
2023-04-02T20:41:22.060Z,4.68
2023-04-02T20:43:52.808Z,6.95
2023-04-02T20:46:23.306Z,4.93
2023-04-02T20:48:53.629Z,2.13
2023-04-02T20:51:26.148Z,3.75
2023-04-02T20:53:56.415Z,3.08
2023-04-02T20:56:26.984Z,2.90
2023-04-02T20:58:57.254Z,3.40
2023-04-02T21:01:29.223Z,1.98
2023-04-02T21:04:00.524Z,1.90
2023-04-02T21:06:35.220Z,2.30
2023-04-02T21:09:08.151Z,1.37
2023-04-02T21:11:39.294Z,2.03
2023-04-02T21:14:09.604Z,2.15
2023-04-02T21:16:40.389Z,2.13
2023-04-02T21:19:12.184Z,2.65
2023-04-02T21:21:44.997Z,1.92
2023-04-02T21:24:15.728Z,3.20
2023-04-02T21:26:46.595Z,1.33
2023-04-02T21:29:17.153Z,2.00
2023-04-02T21:31:47.567Z,2.07
2023-04-02T21:34:19.488Z,2.38
2023-04-02T21:36:53.046Z,1.70
2023-04-02T21:39:24.644Z,1.77
2023-04-02T21:41:56.078Z,1.95
2023-04-02T21:44:27.118Z,2.17
2023-04-02T21:46:57.514Z,2.70
2023-04-02T21:49:28.420Z,2.30
2023-04-02T21:52:01.216Z,2.30
2023-04-02T21:54:31.558Z,2.03
2023-04-02T21:57:02.001Z,0.98
2023-04-02T21:59:32.324Z,4.03
2023-04-02T22:02:02.732Z,3.77
2023-04-02T22:04:33.582Z,2.67
2023-04-02T22:07:06.606Z,1.42
2023-04-02T22:09:36.934Z,1.50
2023-04-02T22:12:08.241Z,1.50
2023-04-02T22:14:38.619Z,2.53
2023-04-02T22:17:08.914Z,2.35
2023-04-02T22:19:39.241Z,1.60
2023-04-02T22:22:11.867Z,1.70
2023-04-02T22:24:42.182Z,1.47
2023-04-02T22:27:12.894Z,1.55
2023-04-02T22:29:43.285Z,1.58
2023-04-02T22:32:13.596Z,1.50
2023-04-02T22:34:45.801Z,1.70
2023-04-02T22:37:18.464Z,2.53
2023-04-02T22:39:48.872Z,5.03
2023-04-02T22:42:19.218Z,1.98
2023-04-02T22:44:49.576Z,3.42
2023-04-02T22:47:19.907Z,3.60
2023-04-02T22:49:50.341Z,1.73
2023-04-02T22:52:23.041Z,2.03
2023-04-02T22:54:53.288Z,2.03
2023-04-02T22:57:23.815Z,2.72
2023-04-02T22:59:54.302Z,1.85
2023-04-02T23:02:24.584Z,1.80
2023-04-02T23:04:55.021Z,2.10
2023-04-02T23:07:27.690Z,1.60
2023-04-02T23:09:58.230Z,2.53
2023-04-02T23:12:28.545Z,3.67
2023-04-02T23:14:59.495Z,1.67
2023-04-02T23:17:29.961Z,1.67
2023-04-02T23:20:00.492Z,4.07
2023-04-02T23:22:33.204Z,2.17
2023-04-02T23:25:04.199Z,2.23
2023-04-02T23:27:34.683Z,2.43
2023-04-02T23:30:05.058Z,2.55
2023-04-02T23:32:35.624Z,3.38
2023-04-02T23:35:06.647Z,2.00
2023-04-02T23:37:39.385Z,5.45
2023-04-02T23:40:11.729Z,5.23
2023-04-02T23:42:41.852Z,3.03
2023-04-02T23:45:13.285Z,4.00
2023-04-02T23:47:43.728Z,3.47
2023-04-02T23:50:14.221Z,1.80
2023-04-02T23:52:47.589Z,1.40
2023-04-02T23:55:17.905Z,2.28
2023-04-02T23:57:48.199Z,1.33
